Terminal Aerodrome Forecast
Issued by NWS Twin Cities, MN

Home | Current Version | Previous Version | Text Only | Print | Product List | Glossary On
Versions: 1 2 3 4 5 6 7 8 9 10 11 12 13 14 15 16 17 18 19 20 21 22 23 24 25 26 27 28
899
FTUS43 KMPX 142342
TAFMSP
TAF
KMSP 142342Z 1500/1606 15011KT 1 1/2SM -SN FEW015 OVC025
     FM150015 15011KT 3SM -SN FEW018 OVC030
     FM150130 15009KT 6SM -SN FEW018 BKN030 OVC040
      TEMPO 1502/1504 SCT030 OVC040
     FM150400 16007KT P6SM BKN025 OVC040
     FM151000 19004KT 6SM BR OVC012
     FM151800 19006KT P6SM FEW015 BKN200=

USA.gov is the U.S. government's official web portal to all federal, state and local government web resources and services.